createdAt,value
2018-06-01T00:02:44.438Z,20.70
2018-06-01T00:06:47.382Z,20.80
2018-06-01T00:10:51.308Z,20.50
2018-06-01T00:14:54.577Z,20.50
2018-06-01T00:18:57.535Z,20.60
2018-06-01T00:23:00.154Z,20.80
2018-06-01T00:27:02.690Z,20.80
2018-06-01T00:31:05.333Z,20.70
2018-06-01T00:35:08.640Z,20.50
2018-06-01T00:39:11.378Z,20.40
2018-06-01T00:43:14.032Z,20.50
2018-06-01T00:47:17.421Z,20.50
2018-06-01T00:51:22.350Z,20.40
2018-06-01T00:55:26.367Z,20.40
2018-06-01T00:59:29.713Z,20.30
2018-06-01T01:03:32.431Z,20.30
2018-06-01T01:07:34.957Z,20.50
2018-06-01T01:11:38.999Z,20.60
2018-06-01T01:15:41.762Z,20.50
2018-06-01T01:19:45.080Z,20.50
2018-06-01T01:23:49.686Z,20.30
2018-06-01T01:27:53.554Z,20.00
2018-06-01T01:31:56.270Z,20.00
2018-06-01T01:35:58.843Z,19.90
2018-06-01T01:40:02.931Z,19.30
2018-06-01T01:44:05.529Z,19.30
2018-06-01T01:48:12.048Z,19.30
2018-06-01T01:52:15.297Z,19.40
2018-06-01T01:56:18.742Z,19.70
2018-06-01T02:00:21.651Z,19.70
2018-06-01T02:04:24.446Z,19.90
2018-06-01T02:08:27.343Z,19.90
2018-06-01T02:12:29.876Z,19.80
2018-06-01T02:16:32.714Z,19.70
2018-06-01T02:20:36.013Z,19.50
2018-06-01T02:24:39.172Z,19.40
2018-06-01T02:28:41.791Z,19.30
2018-06-01T02:32:44.688Z,19.20
2018-06-01T02:36:48.885Z,19.40
2018-06-01T02:40:52.393Z,19.40
2018-06-01T02:44:54.947Z,19.50
2018-06-01T02:48:59.313Z,19.30
2018-06-01T02:53:02.652Z,19.40
2018-06-01T02:57:05.360Z,19.30
2018-06-01T03:01:07.900Z,19.60
2018-06-01T03:05:11.268Z,19.70
2018-06-01T03:09:14.794Z,19.70
2018-06-01T03:13:17.844Z,19.70
2018-06-01T03:17:20.447Z,19.50
2018-06-01T03:21:23.160Z,19.40
2018-06-01T03:25:25.730Z,19.30
2018-06-01T03:29:28.735Z,19.40
2018-06-01T03:33:32.111Z,19.60
2018-06-01T03:37:37.120Z,19.60
2018-06-01T03:41:40.013Z,19.60
2018-06-01T03:45:43.383Z,19.60
2018-06-01T03:49:46.184Z,19.70
2018-06-01T03:53:48.901Z,19.80
2018-06-01T03:57:51.451Z,19.80
2018-06-01T04:01:54.004Z,19.70
2018-06-01T04:05:57.303Z,19.80
2018-06-01T04:09:59.925Z,19.70
2018-06-01T04:14:03.430Z,19.60
2018-06-01T04:18:07.965Z,19.50
2018-06-01T04:22:11.531Z,19.40
2018-06-01T04:26:15.531Z,19.40
2018-06-01T04:30:21.880Z,19.40
2018-06-01T04:34:24.603Z,19.30
2018-06-01T04:38:27.153Z,19.20
2018-06-01T04:42:30.337Z,19.20
2018-06-01T04:46:32.973Z,19.20
2018-06-01T04:50:35.948Z,19.10
2018-06-01T04:54:39.888Z,19.00
2018-06-01T04:58:43.615Z,19.00
2018-06-01T05:02:46.270Z,18.90
2018-06-01T05:06:49.240Z,19.10
2018-06-01T05:10:52.898Z,19.20
2018-06-01T05:14:56.288Z,19.40
2018-06-01T05:19:00.154Z,19.40
2018-06-01T05:23:07.615Z,19.50
2018-06-01T05:27:10.422Z,19.60
2018-06-01T05:31:13.736Z,19.70
2018-06-01T05:35:17.079Z,19.90
2018-06-01T05:39:19.798Z,19.90
2018-06-01T05:43:23.552Z,19.80
2018-06-01T05:47:27.934Z,19.90
2018-06-01T05:51:30.543Z,19.90
2018-06-01T05:55:35.392Z,19.90
2018-06-01T05:59:38.540Z,19.90
2018-06-01T06:03:41.445Z,19.90
2018-06-01T06:07:48.603Z,19.90
2018-06-01T06:11:51.184Z,20.00
2018-06-01T06:15:54.707Z,20.60
2018-06-01T06:19:58.301Z,21.60
2018-06-01T06:24:01.006Z,21.50
2018-06-01T06:28:05.682Z,21.40
2018-06-01T06:32:08.654Z,21.40
2018-06-01T06:36:12.060Z,21.00
2018-06-01T06:40:14.712Z,21.00
2018-06-01T06:44:18.545Z,21.90
2018-06-01T06:48:24.677Z,21.90
2018-06-01T06:52:29.240Z,22.20
2018-06-01T06:56:31.903Z,22.70
2018-06-01T07:00:35.479Z,22.10
2018-06-01T07:04:39.125Z,21.80
2018-06-01T07:08:47.847Z,21.80
2018-06-01T07:12:53.783Z,21.70
2018-06-01T07:16:57.548Z,21.60
2018-06-01T07:21:01.391Z,21.50
2018-06-01T07:25:07.056Z,21.50
2018-06-01T07:29:10.082Z,21.50
2018-06-01T07:33:13.167Z,21.50
2018-06-01T07:37:17.057Z,21.60
2018-06-01T07:41:20.467Z,21.70
2018-06-01T07:45:23.007Z,21.70
2018-06-01T07:49:25.562Z,22.50
2018-06-01T07:53:28.887Z,23.70
2018-06-01T07:57:33.964Z,23.60
2018-06-01T08:01:38.535Z,23.90
2018-06-01T08:05:45.000Z,23.50
2018-06-01T08:09:48.719Z,23.00
2018-06-01T08:13:54.227Z,22.70
2018-06-01T08:17:57.712Z,22.70
2018-06-01T08:22:00.258Z,22.30
2018-06-01T08:26:04.400Z,21.90
2018-06-01T08:30:20.707Z,21.80
2018-06-01T08:34:23.313Z,21.90
2018-06-01T08:38:25.976Z,21.80
2018-06-01T08:42:28.504Z,21.90
2018-06-01T08:46:31.418Z,21.90
2018-06-01T08:50:36.735Z,22.20
2018-06-01T08:54:40.267Z,22.10
2018-06-01T08:58:43.092Z,22.20
2018-06-01T09:02:46.183Z,22.10
2018-06-01T09:06:48.727Z,21.90
2018-06-01T09:10:51.276Z,21.80
2018-06-01T09:14:53.823Z,21.70
2018-06-01T09:18:57.251Z,21.50
2018-06-01T09:23:00.095Z,21.50
2018-06-01T09:27:03.588Z,21.50
2018-06-01T09:31:08.876Z,21.60
2018-06-01T09:35:11.655Z,21.60
2018-06-01T09:39:14.350Z,21.70
2018-06-01T09:43:17.219Z,21.90
2018-06-01T09:47:19.812Z,22.00
2018-06-01T09:51:22.538Z,22.10
2018-06-01T09:55:28.924Z,22.30
2018-06-01T09:59:32.011Z,22.30
2018-06-01T10:03:36.938Z,22.20
2018-06-01T10:07:42.114Z,22.00
2018-06-01T10:11:45.972Z,22.00
2018-06-01T10:15:51.317Z,21.90
2018-06-01T10:20:01.702Z,22.10
2018-06-01T10:24:14.244Z,22.00
2018-06-01T10:28:22.541Z,22.30
2018-06-01T10:32:25.659Z,22.30
2018-06-01T10:40:50.460Z,22.30
2018-06-01T10:44:55.663Z,22.80
2018-06-01T10:48:58.212Z,22.80
2018-06-01T10:53:01.514Z,23.50
2018-06-01T10:57:06.619Z,23.50
2018-06-01T11:01:12.715Z,23.80
2018-06-01T11:05:20.468Z,24.00
2018-06-01T11:09:23.008Z,23.80
2018-06-01T11:13:25.856Z,23.50
2018-06-01T11:17:29.142Z,23.40
2018-06-01T11:21:32.638Z,23.30
2018-06-01T11:25:40.828Z,23.30
2018-06-01T11:29:49.939Z,23.30
2018-06-01T11:33:52.474Z,23.10
2018-06-01T11:37:55.050Z,23.00
2018-06-01T11:42:14.682Z,23.20
2018-06-01T11:46:18.573Z,23.10
2018-06-01T11:50:29.361Z,23.40
2018-06-01T11:54:43.302Z,23.70
2018-06-01T11:58:47.462Z,23.70
2018-06-01T12:02:50.908Z,24.10
2018-06-01T12:06:57.371Z,24.10
2018-06-01T12:10:59.937Z,24.10
2018-06-01T12:15:02.462Z,24.20
2018-06-01T12:19:09.420Z,24.30
2018-06-01T12:23:13.147Z,24.50
2018-06-01T12:27:16.292Z,24.50
2018-06-01T12:31:22.032Z,24.60
2018-06-01T12:35:35.569Z,24.50
2018-06-01T12:39:38.771Z,24.50
2018-06-01T12:43:42.450Z,24.70
2018-06-01T12:47:45.836Z,24.60
2018-06-01T12:51:48.496Z,24.50
2018-06-01T12:55:51.029Z,24.30
2018-06-01T12:59:53.579Z,24.20
2018-06-01T13:03:56.107Z,24.00
2018-06-01T13:07:58.669Z,24.00
2018-06-01T13:12:03.074Z,23.80
2018-06-01T13:16:09.267Z,23.70
2018-06-01T13:20:12.065Z,23.60
2018-06-01T13:24:15.063Z,23.70
2018-06-01T13:28:17.607Z,23.60
2018-06-01T13:32:20.217Z,23.50
2018-06-01T13:36:23.844Z,23.40
2018-06-01T13:40:26.419Z,23.30
2018-06-01T13:44:29.011Z,23.20
2018-06-01T13:48:38.052Z,23.00
2018-06-01T13:52:41.498Z,22.90
2018-06-01T13:56:45.834Z,22.80
2018-06-01T14:00:53.203Z,22.70
2018-06-01T14:04:56.632Z,22.60
2018-06-01T14:08:59.440Z,22.50
2018-06-01T14:13:02.846Z,22.60
2018-06-01T14:17:06.079Z,22.80
2018-06-01T14:21:11.159Z,23.00
2018-06-01T14:25:14.017Z,23.10
2018-06-01T14:29:17.231Z,23.10
2018-06-01T14:33:20.531Z,23.20
2018-06-01T14:37:23.079Z,23.10
2018-06-01T14:41:25.618Z,23.20
2018-06-01T14:45:28.241Z,23.20
2018-06-01T14:49:31.770Z,23.20
2018-06-01T14:53:34.442Z,23.20
2018-06-01T14:57:36.994Z,23.10
2018-06-01T15:01:44.982Z,23.00
2018-06-01T15:05:54.571Z,22.90
2018-06-01T15:09:58.564Z,23.00
2018-06-01T15:14:02.987Z,22.90
2018-06-01T15:18:07.662Z,22.80
2018-06-01T15:22:10.739Z,22.70
2018-06-01T15:26:15.015Z,22.70
2018-06-01T15:30:18.594Z,22.60
2018-06-01T15:34:22.100Z,22.80
2018-06-01T15:38:26.357Z,22.70
2018-06-01T15:42:36.254Z,22.70
2018-06-01T15:46:40.680Z,22.90
2018-06-01T15:50:43.535Z,23.00
2018-06-01T15:54:48.094Z,23.00
2018-06-01T15:58:55.356Z,22.90
2018-06-01T16:02:58.089Z,22.70
2018-06-01T16:07:01.473Z,22.50
2018-06-01T16:11:06.179Z,22.40
2018-06-01T16:15:09.005Z,22.30
2018-06-01T16:19:11.696Z,22.30
2018-06-01T16:23:14.350Z,22.30
2018-06-01T16:27:16.871Z,22.40
2018-06-01T16:31:21.257Z,22.30
2018-06-01T16:35:25.523Z,22.10
2018-06-01T16:39:28.372Z,22.10
2018-06-01T16:43:32.462Z,22.00
2018-06-01T16:47:35.479Z,22.00
2018-06-01T16:51:41.785Z,21.90
2018-06-01T16:55:44.435Z,21.90
2018-06-01T16:59:46.959Z,21.90
2018-06-01T17:03:50.556Z,21.80
2018-06-01T17:07:53.087Z,21.80
2018-06-01T17:11:56.459Z,21.70
2018-06-01T17:16:02.036Z,21.70
2018-06-01T17:20:06.482Z,21.70
2018-06-01T17:24:09.390Z,21.70
2018-06-01T17:28:12.588Z,21.60
2018-06-01T17:32:16.477Z,21.50
2018-06-01T17:36:19.147Z,21.50
2018-06-01T17:40:21.675Z,21.50
2018-06-01T17:44:27.903Z,21.40
2018-06-01T17:48:32.753Z,21.30
2018-06-01T17:52:37.025Z,21.20
2018-06-01T17:56:46.124Z,21.20
2018-06-01T18:00:49.212Z,21.20
2018-06-01T18:04:56.175Z,21.20
2018-06-01T18:08:59.326Z,21.30
2018-06-01T18:13:06.847Z,21.20
2018-06-01T18:17:10.844Z,21.20
2018-06-01T18:21:13.759Z,21.30
2018-06-01T18:25:16.497Z,21.20
2018-06-01T18:29:19.057Z,21.20
2018-06-01T18:33:22.700Z,21.10
2018-06-01T18:37:30.164Z,21.10
2018-06-01T18:41:35.227Z,20.90
2018-06-01T18:45:38.702Z,20.90
2018-06-01T18:49:43.559Z,20.70
2018-06-01T18:53:46.639Z,20.60
2018-06-01T18:57:51.414Z,20.70
2018-06-01T19:01:53.939Z,20.80
2018-06-01T19:05:56.951Z,20.80
2018-06-01T19:09:59.502Z,20.90
2018-06-01T19:14:03.600Z,20.70
2018-06-01T19:18:08.030Z,20.60
2018-06-01T19:22:11.231Z,20.60
2018-06-01T19:26:15.308Z,20.60
2018-06-01T19:30:22.751Z,20.60
2018-06-01T19:34:26.234Z,20.60
2018-06-01T19:38:30.938Z,20.60
2018-06-01T19:42:35.728Z,20.50
2018-06-01T19:46:39.407Z,20.40
2018-06-01T19:50:43.537Z,20.30
2018-06-01T19:54:47.075Z,20.40
2018-06-01T19:58:50.595Z,20.40
2018-06-01T20:02:57.438Z,20.40
2018-06-01T20:07:00.292Z,20.30
2018-06-01T20:11:03.294Z,20.30
2018-06-01T20:15:06.492Z,20.20
2018-06-01T20:19:09.339Z,20.10
2018-06-01T20:23:12.826Z,20.00
2018-06-01T20:27:15.390Z,19.90
2018-06-01T20:31:17.922Z,20.00
2018-06-01T20:35:22.654Z,20.00
2018-06-01T20:39:25.230Z,19.80
2018-06-01T20:43:28.761Z,19.70
2018-06-01T20:47:34.134Z,19.50
2018-06-01T20:51:38.314Z,19.50
2018-06-01T20:55:41.137Z,19.40
2018-06-01T20:59:44.811Z,19.30
2018-06-01T21:03:47.339Z,19.10
2018-06-01T21:07:51.234Z,19.20
2018-06-01T21:11:53.766Z,19.30
2018-06-01T21:15:57.107Z,19.20
2018-06-01T21:20:01.621Z,19.10
2018-06-01T21:24:04.687Z,19.20
2018-06-01T21:28:07.482Z,19.30
2018-06-01T21:32:10.134Z,19.30
2018-06-01T21:36:13.610Z,19.20
2018-06-01T21:40:16.301Z,19.10
2018-06-01T21:44:24.800Z,19.10
2018-06-01T21:48:27.531Z,19.10
2018-06-01T21:52:31.555Z,19.20
2018-06-01T21:56:36.455Z,19.20
2018-06-01T22:00:40.309Z,19.20
2018-06-01T22:04:44.297Z,19.20
2018-06-01T22:08:46.988Z,19.20
2018-06-01T22:12:49.650Z,19.30
2018-06-01T22:16:52.172Z,19.00
2018-06-01T22:20:55.199Z,19.30
2018-06-01T22:24:57.723Z,19.20
2018-06-01T22:29:01.466Z,19.20
2018-06-01T22:33:07.742Z,19.00
2018-06-01T22:37:12.544Z,18.90
2018-06-01T22:41:15.497Z,18.80
2018-06-01T22:45:18.159Z,18.60
2018-06-01T22:49:24.623Z,18.40
2018-06-01T22:53:33.396Z,18.40
2018-06-01T22:57:37.446Z,18.40
2018-06-01T23:01:41.098Z,18.40
2018-06-01T23:05:45.475Z,18.10
2018-06-01T23:09:54.736Z,18.00
2018-06-01T23:13:57.272Z,17.90
2018-06-01T23:17:59.987Z,18.00
2018-06-01T23:22:03.835Z,17.90
2018-06-01T23:26:07.314Z,17.80
2018-06-01T23:30:10.062Z,17.80
2018-06-01T23:34:12.939Z,17.60
2018-06-01T23:38:16.223Z,17.40
2018-06-01T23:42:19.819Z,17.40
2018-06-01T23:46:28.251Z,17.30
2018-06-01T23:50:31.532Z,17.50
2018-06-01T23:54:34.856Z,17.30
2018-06-01T23:58:38.168Z,17.30
